createdAt,value
2018-12-17T00:00:13.644Z,32.57
2018-12-17T00:02:41.472Z,31.40
2018-12-17T00:05:09.717Z,32.63
2018-12-17T00:07:37.584Z,31.27
2018-12-17T00:10:06.659Z,32.93
2018-12-17T00:12:34.572Z,33.50
2018-12-17T00:15:08.755Z,33.00
2018-12-17T00:17:36.732Z,31.40
2018-12-17T00:20:09.846Z,30.87
2018-12-17T00:22:37.658Z,35.07
2018-12-17T00:25:05.936Z,36.43
2018-12-17T00:27:33.852Z,33.00
2018-12-17T00:30:01.847Z,31.37
2018-12-17T00:32:30.200Z,32.90
2018-12-17T00:35:07.450Z,31.53
2018-12-17T00:37:35.297Z,29.73
2018-12-17T00:40:12.639Z,28.50
2018-12-17T00:42:40.814Z,30.37
2018-12-17T00:45:08.727Z,30.17
2018-12-17T00:47:37.815Z,29.27
2018-12-17T00:50:06.055Z,29.33
2018-12-17T00:52:38.505Z,28.47
2018-12-17T00:55:06.538Z,27.57
2018-12-17T00:57:35.385Z,27.10
2018-12-17T01:00:04.401Z,26.67
2018-12-17T01:02:32.436Z,26.43
2018-12-17T01:05:00.247Z,25.37
2018-12-17T01:07:30.802Z,24.63
2018-12-17T01:09:58.689Z,24.60
2018-12-17T01:12:26.863Z,22.83
2018-12-17T01:14:54.833Z,21.60
2018-12-17T01:17:23.077Z,21.00
2018-12-17T01:19:50.898Z,23.57
2018-12-17T01:22:21.460Z,21.60
2018-12-17T01:24:49.321Z,22.57
2018-12-17T01:27:17.349Z,19.27
2018-12-17T01:29:45.172Z,21.13
2018-12-17T01:32:14.356Z,20.33
2018-12-17T01:34:42.233Z,21.63
2018-12-17T01:37:11.541Z,22.80
2018-12-17T01:39:39.353Z,20.93
2018-12-17T01:42:07.723Z,22.07
2018-12-17T01:44:35.774Z,22.63
2018-12-17T01:47:03.790Z,20.73
2018-12-17T01:49:31.642Z,23.17
2018-12-17T01:52:01.977Z,21.50
2018-12-17T01:54:30.071Z,22.23
2018-12-17T01:56:58.151Z,20.73
2018-12-17T01:59:25.987Z,19.77
2018-12-17T02:01:53.974Z,18.00
2018-12-17T02:04:21.809Z,18.00
2018-12-17T02:06:49.905Z,18.27
2018-12-17T02:09:17.868Z,18.23
2018-12-17T02:11:50.608Z,18.07
2018-12-17T02:14:18.420Z,18.20
2018-12-17T02:16:46.423Z,16.80
2018-12-17T02:19:14.223Z,18.33
2018-12-17T02:21:42.176Z,16.60
2018-12-17T02:24:10.054Z,16.80
2018-12-17T02:26:38.016Z,17.13
2018-12-17T02:29:06.121Z,17.67
2018-12-17T02:31:33.950Z,20.43
2018-12-17T02:34:01.822Z,19.03
2018-12-17T02:36:29.707Z,20.63
2018-12-17T02:38:57.504Z,20.07
2018-12-17T02:41:25.451Z,21.13
2018-12-17T02:43:53.737Z,19.70
2018-12-17T02:46:21.530Z,19.63
2018-12-17T02:48:49.469Z,19.93
2018-12-17T02:51:17.311Z,18.73
2018-12-17T02:53:45.178Z,18.33
2018-12-17T02:56:13.003Z,20.80
2018-12-17T02:58:43.971Z,19.17
2018-12-17T03:01:11.821Z,19.07
2018-12-17T03:03:39.680Z,19.33
2018-12-17T03:06:07.480Z,21.47
2018-12-17T03:08:35.338Z,19.73
2018-12-17T03:11:03.291Z,21.20
2018-12-17T03:13:31.200Z,19.23
2018-12-17T03:15:59.102Z,20.63
2018-12-17T03:18:27.009Z,20.27
2018-12-17T03:20:54.864Z,21.10
2018-12-17T03:23:22.722Z,19.00
2018-12-17T03:25:50.557Z,17.27
2018-12-17T03:28:18.449Z,19.40
2018-12-17T03:30:46.288Z,17.50
2018-12-17T03:33:15.323Z,17.23
2018-12-17T03:35:43.145Z,19.10
2018-12-17T03:38:11.046Z,19.70
2018-12-17T03:40:38.863Z,18.77
2018-12-17T03:43:06.685Z,17.03
2018-12-17T03:45:34.632Z,16.93
2018-12-17T03:48:02.470Z,17.03
2018-12-17T03:50:30.423Z,17.13
2018-12-17T03:52:58.265Z,14.17
2018-12-17T03:55:26.157Z,14.93
2018-12-17T03:57:54.128Z,13.43
2018-12-17T04:00:21.962Z,13.77
2018-12-17T04:02:49.966Z,12.40
2018-12-17T04:05:17.817Z,13.63
2018-12-17T04:07:45.682Z,13.57
2018-12-17T04:10:13.497Z,14.83
2018-12-17T04:12:41.637Z,14.67
2018-12-17T04:15:09.697Z,13.93
2018-12-17T04:17:37.614Z,13.47
2018-12-17T04:20:05.578Z,13.13
2018-12-17T04:22:33.496Z,13.00
2018-12-17T04:25:01.398Z,14.87
2018-12-17T04:27:29.446Z,12.53
2018-12-17T04:29:57.298Z,12.83
2018-12-17T04:32:25.196Z,13.20
2018-12-17T04:34:53.217Z,12.10
2018-12-17T04:37:21.149Z,11.13
2018-12-17T04:39:49.170Z,10.47
2018-12-17T04:42:17.100Z,11.27
2018-12-17T04:44:45.047Z,10.87
2018-12-17T04:47:13.409Z,10.13
2018-12-17T04:49:41.254Z,9.47
2018-12-17T04:52:09.329Z,9.80
2018-12-17T04:54:37.335Z,9.23
2018-12-17T04:57:05.467Z,9.63
2018-12-17T04:59:33.289Z,9.60
2018-12-17T05:02:02.652Z,8.90
2018-12-17T05:04:30.497Z,9.33
2018-12-17T05:06:58.392Z,9.13
2018-12-17T05:09:26.211Z,9.00
2018-12-17T05:11:54.329Z,8.77
2018-12-17T05:14:22.360Z,9.57
2018-12-17T05:16:50.420Z,8.20
2018-12-17T05:19:18.248Z,8.60
2018-12-17T05:21:47.193Z,8.80
2018-12-17T05:24:15.360Z,8.33
2018-12-17T05:26:43.229Z,7.87
2018-12-17T05:29:11.194Z,7.60
2018-12-17T05:31:39.070Z,7.40
2018-12-17T05:34:08.365Z,8.00
2018-12-17T05:36:36.603Z,7.37
2018-12-17T05:39:05.441Z,7.30
2018-12-17T05:41:33.376Z,10.70
2018-12-17T05:44:01.670Z,9.80
2018-12-17T05:46:29.537Z,7.13
2018-12-17T05:48:57.391Z,9.27
2018-12-17T05:51:25.270Z,7.97
2018-12-17T05:53:53.368Z,7.83
2018-12-17T05:56:21.436Z,8.60
2018-12-17T05:58:49.482Z,9.17
2018-12-17T06:01:17.553Z,6.83
2018-12-17T06:03:46.862Z,8.10
2018-12-17T06:06:14.855Z,9.30
2018-12-17T06:08:42.806Z,7.63
2018-12-17T06:11:10.662Z,7.63
2018-12-17T06:13:38.663Z,7.70
2018-12-17T06:16:06.619Z,7.30
2018-12-17T06:18:34.948Z,7.77
2018-12-17T06:21:03.484Z,7.53
2018-12-17T06:23:31.640Z,6.40
2018-12-17T06:25:59.697Z,6.43
2018-12-17T06:28:27.717Z,4.47
2018-12-17T06:30:55.665Z,6.47
2018-12-17T06:33:25.094Z,5.33
2018-12-17T06:35:52.980Z,5.57
2018-12-17T06:38:21.023Z,4.30
2018-12-17T06:40:48.925Z,4.07
2018-12-17T06:43:16.825Z,5.73
2018-12-17T06:45:44.639Z,4.30
2018-12-17T06:48:17.102Z,3.87
2018-12-17T06:50:42.565Z,4.40
2018-12-17T06:53:10.507Z,3.67
2018-12-17T06:55:38.384Z,2.97
2018-12-17T06:58:06.690Z,2.73
2018-12-17T07:00:34.731Z,3.33
2018-12-17T07:03:02.727Z,2.70
2018-12-17T07:05:30.735Z,2.50
2018-12-17T07:07:59.110Z,2.00
2018-12-17T07:10:27.042Z,2.27
2018-12-17T07:12:55.307Z,1.60
2018-12-17T07:15:23.361Z,1.87
2018-12-17T07:17:51.607Z,1.37
2018-12-17T07:20:19.727Z,2.03
2018-12-17T07:22:47.875Z,1.90
2018-12-17T07:25:15.732Z,1.57
2018-12-17T07:27:44.143Z,1.90
2018-12-17T07:30:12.272Z,2.10
2018-12-17T07:32:41.928Z,1.63
2018-12-17T07:35:09.974Z,1.73
2018-12-17T07:37:38.010Z,1.40
2018-12-17T07:40:06.177Z,2.30
2018-12-17T07:42:34.392Z,2.20
2018-12-17T07:45:08.545Z,2.60
2018-12-17T07:47:39.249Z,1.83
2018-12-17T07:50:09.417Z,1.63
2018-12-17T07:52:39.413Z,2.20
2018-12-17T07:55:08.049Z,2.00
2018-12-17T07:57:36.400Z,2.00
2018-12-17T08:00:07.121Z,2.00
2018-12-17T08:02:35.235Z,1.53
2018-12-17T08:05:03.377Z,1.87
2018-12-17T08:07:31.266Z,2.07
2018-12-17T08:10:00.158Z,2.30
2018-12-17T08:12:27.979Z,1.80
2018-12-17T08:14:56.293Z,1.87
2018-12-17T08:17:24.244Z,2.23
2018-12-17T08:19:52.424Z,2.23
2018-12-17T08:22:20.508Z,2.73
2018-12-17T08:24:48.585Z,1.80
2018-12-17T08:27:16.643Z,1.97
2018-12-17T08:29:45.537Z,2.20
2018-12-17T08:32:13.398Z,1.70
2018-12-17T08:34:42.442Z,1.53
2018-12-17T08:37:10.359Z,1.00
2018-12-17T08:39:38.464Z,1.00
2018-12-17T08:42:06.499Z,1.40
2018-12-17T08:44:34.554Z,0.97
2018-12-17T08:47:02.604Z,1.10
2018-12-17T08:49:30.475Z,1.00
2018-12-17T08:51:58.581Z,1.27
2018-12-17T08:54:26.386Z,1.40
2018-12-17T08:56:54.780Z,1.60
2018-12-17T08:59:22.845Z,1.70
2018-12-17T09:01:50.681Z,1.20
2018-12-17T09:04:18.720Z,1.07
2018-12-17T09:06:46.524Z,1.20
2018-12-17T09:09:14.556Z,1.83
2018-12-17T09:11:42.441Z,1.90
2018-12-17T09:14:10.398Z,1.27
2018-12-17T09:16:38.244Z,1.90
2018-12-17T09:19:06.126Z,1.47
2018-12-17T09:21:33.932Z,1.10
2018-12-17T09:24:01.868Z,1.23
2018-12-17T09:26:29.725Z,1.83
2018-12-17T09:28:57.678Z,1.77
2018-12-17T09:31:25.566Z,1.50
2018-12-17T09:33:53.617Z,1.23
2018-12-17T09:36:21.497Z,1.33
2018-12-17T09:38:49.552Z,1.73
2018-12-17T09:41:17.503Z,1.40
2018-12-17T09:43:45.311Z,1.70
2018-12-17T09:46:13.151Z,1.60
2018-12-17T09:48:41.137Z,1.20
2018-12-17T09:51:08.988Z,1.67
2018-12-17T09:53:36.950Z,2.57
2018-12-17T09:56:04.895Z,1.97
2018-12-17T09:58:32.988Z,1.47
2018-12-17T10:01:00.963Z,1.63
2018-12-17T10:03:28.979Z,1.43
2018-12-17T10:05:56.869Z,1.20
2018-12-17T10:08:25.642Z,1.37
2018-12-17T10:10:53.508Z,1.17
2018-12-17T10:13:22.434Z,1.30
2018-12-17T10:15:50.293Z,1.70
2018-12-17T10:18:18.269Z,1.47
2018-12-17T10:20:46.111Z,2.20
2018-12-17T10:23:14.108Z,1.80
2018-12-17T10:25:41.973Z,1.83
2018-12-17T10:28:09.911Z,1.47
2018-12-17T10:30:37.766Z,1.50
2018-12-17T10:33:05.725Z,3.07
2018-12-17T10:35:33.769Z,1.60
2018-12-17T10:38:03.283Z,2.10
2018-12-17T10:40:33.269Z,2.00
2018-12-17T10:43:01.142Z,1.43
2018-12-17T10:45:29.030Z,2.27
2018-12-17T10:47:57.040Z,1.87
2018-12-17T10:50:24.855Z,1.50
2018-12-17T10:52:52.798Z,2.30
2018-12-17T10:55:20.632Z,1.60
2018-12-17T10:57:48.525Z,2.40
2018-12-17T11:00:21.908Z,1.83
2018-12-17T11:02:50.368Z,1.70
2018-12-17T11:05:18.595Z,2.17
2018-12-17T11:07:46.619Z,1.27
2018-12-17T11:10:14.765Z,1.83
2018-12-17T11:12:42.787Z,1.70
2018-12-17T11:15:10.837Z,1.87
2018-12-17T11:17:38.944Z,2.23
2018-12-17T11:20:07.971Z,1.80
2018-12-17T11:22:36.023Z,2.17
2018-12-17T11:25:04.140Z,1.67
2018-12-17T11:27:32.182Z,2.53
2018-12-17T11:30:00.065Z,2.10
2018-12-17T11:32:28.135Z,2.03
2018-12-17T11:34:55.971Z,2.47
2018-12-17T11:37:24.068Z,2.33
2018-12-17T11:39:51.956Z,2.60
2018-12-17T11:42:20.208Z,1.70
2018-12-17T11:44:48.321Z,1.70
2018-12-17T11:47:16.134Z,1.80
2018-12-17T11:49:44.829Z,2.27
2018-12-17T11:52:12.776Z,2.27
2018-12-17T11:54:40.759Z,2.50
2018-12-17T11:57:16.185Z,2.70
2018-12-17T11:59:44.000Z,2.03
2018-12-17T12:02:12.118Z,1.90
2018-12-17T12:04:39.954Z,2.10
2018-12-17T12:07:08.987Z,2.37
2018-12-17T12:09:36.843Z,4.50
2018-12-17T12:12:04.765Z,2.50
2018-12-17T12:14:32.666Z,2.73
2018-12-17T12:17:00.754Z,1.97
2018-12-17T12:19:28.593Z,1.57
2018-12-17T12:21:56.692Z,1.93
2018-12-17T12:24:24.561Z,1.50
2018-12-17T12:26:53.010Z,1.47
2018-12-17T12:29:22.158Z,1.60
2018-12-17T12:31:50.405Z,0.97
2018-12-17T12:34:18.363Z,0.97
2018-12-17T12:36:46.522Z,0.90
2018-12-17T12:39:14.412Z,1.40
2018-12-17T12:41:42.479Z,1.37
2018-12-17T12:44:10.323Z,1.10
2018-12-17T12:46:38.436Z,1.63
2018-12-17T12:49:06.266Z,1.20
2018-12-17T12:51:34.548Z,1.33
2018-12-17T12:54:02.362Z,1.40
2018-12-17T12:56:30.477Z,1.23
2018-12-17T12:58:58.736Z,1.20
2018-12-17T13:01:26.874Z,1.00
2018-12-17T13:03:54.934Z,1.10
2018-12-17T13:06:23.356Z,1.23
2018-12-17T13:08:51.287Z,1.67
2018-12-17T13:11:20.826Z,1.27
2018-12-17T13:13:49.686Z,0.90
2018-12-17T13:16:17.992Z,0.87
2018-12-17T13:18:45.996Z,1.33
2018-12-17T13:21:14.137Z,1.30
2018-12-17T13:23:42.169Z,1.03
2018-12-17T13:26:10.215Z,0.83
2018-12-17T13:28:39.508Z,0.90
2018-12-17T13:31:14.657Z,1.50
2018-12-17T13:33:38.970Z,1.57
2018-12-17T13:36:07.204Z,1.10
2018-12-17T13:38:35.301Z,1.10
2018-12-17T13:41:04.090Z,1.53
2018-12-17T13:43:32.073Z,3.00
2018-12-17T13:46:00.156Z,1.77
2018-12-17T13:48:28.190Z,1.53
2018-12-17T13:51:00.587Z,0.97
2018-12-17T13:53:32.361Z,1.37
2018-12-17T13:56:00.307Z,1.33
2018-12-17T13:58:28.133Z,1.00
2018-12-17T14:00:56.518Z,0.87
2018-12-17T14:03:24.497Z,1.27
2018-12-17T14:05:53.042Z,1.30
2018-12-17T14:08:21.165Z,1.97
2018-12-17T14:10:53.147Z,2.27
2018-12-17T14:13:21.827Z,1.40
2018-12-17T14:15:50.880Z,2.40
2018-12-17T14:18:25.125Z,1.50
2018-12-17T14:20:59.003Z,1.87
2018-12-17T14:23:27.143Z,1.57
2018-12-17T14:25:55.442Z,1.53
2018-12-17T14:28:23.306Z,2.10
2018-12-17T14:30:51.574Z,1.97
2018-12-17T14:33:19.461Z,2.07
2018-12-17T14:35:52.978Z,1.80
2018-12-17T14:38:20.948Z,3.40
2018-12-17T14:40:48.991Z,2.23
2018-12-17T14:43:16.845Z,1.43
2018-12-17T14:45:44.691Z,1.40
2018-12-17T14:48:12.806Z,1.60
2018-12-17T14:50:40.892Z,2.27
2018-12-17T14:53:08.915Z,2.03
2018-12-17T14:55:36.789Z,1.60
2018-12-17T14:58:04.884Z,2.40
2018-12-17T15:00:32.899Z,2.20
2018-12-17T15:03:01.004Z,1.87
2018-12-17T15:05:29.496Z,2.03
2018-12-17T15:07:57.560Z,1.77
2018-12-17T15:10:25.637Z,2.43
2018-12-17T15:12:53.702Z,2.30
2018-12-17T15:15:21.553Z,2.27
2018-12-17T15:17:49.643Z,3.47
2018-12-17T15:20:17.535Z,3.23
2018-12-17T15:22:45.563Z,3.07
2018-12-17T15:25:13.419Z,3.97
2018-12-17T15:27:41.717Z,4.10
2018-12-17T15:30:09.579Z,3.67
2018-12-17T15:32:39.776Z,3.27
2018-12-17T15:35:07.873Z,3.43
2018-12-17T15:37:36.281Z,3.70
2018-12-17T15:40:05.375Z,4.20
2018-12-17T15:42:40.600Z,4.03
2018-12-17T15:45:04.969Z,4.87
2018-12-17T15:47:33.281Z,4.67
2018-12-17T15:50:01.738Z,4.20
2018-12-17T15:52:29.627Z,4.70
2018-12-17T15:54:57.879Z,4.63
2018-12-17T15:57:26.139Z,5.30
2018-12-17T15:59:54.445Z,5.20
2018-12-17T16:02:22.882Z,7.10
2018-12-17T16:04:50.966Z,4.80
2018-12-17T16:07:19.029Z,4.93
2018-12-17T16:09:46.879Z,4.83
2018-12-17T16:12:14.817Z,5.43
2018-12-17T16:14:44.074Z,4.97
2018-12-17T16:17:12.137Z,5.63
2018-12-17T16:19:40.649Z,6.63
2018-12-17T16:22:08.709Z,7.57
2018-12-17T16:24:36.967Z,7.37
2018-12-17T16:27:05.066Z,8.60
2018-12-17T16:29:33.129Z,6.67
2018-12-17T16:32:01.421Z,6.50
2018-12-17T16:34:29.437Z,6.20
2018-12-17T16:36:57.536Z,5.93
2018-12-17T16:39:25.620Z,6.93
2018-12-17T16:41:53.472Z,7.53
2018-12-17T16:44:21.755Z,9.43
2018-12-17T16:46:49.899Z,10.83
2018-12-17T16:49:17.737Z,12.30
2018-12-17T16:51:47.075Z,11.80
2018-12-17T16:54:15.108Z,11.83
2018-12-17T16:56:43.211Z,12.83
2018-12-17T16:59:11.304Z,12.70
2018-12-17T17:01:39.362Z,13.10
2018-12-17T17:04:07.260Z,12.80
2018-12-17T17:06:35.308Z,14.00
2018-12-17T17:09:05.221Z,14.17
2018-12-17T17:11:34.641Z,14.53
2018-12-17T17:14:02.561Z,18.87
2018-12-17T17:16:30.499Z,16.17
2018-12-17T17:18:58.742Z,15.57
2018-12-17T17:21:26.604Z,14.77
2018-12-17T17:23:54.649Z,12.47
2018-12-17T17:26:22.737Z,13.53
2018-12-17T17:28:50.620Z,13.17
2018-12-17T17:31:18.591Z,12.73
2018-12-17T17:33:46.605Z,10.47
2018-12-17T17:36:14.981Z,10.17
2018-12-17T17:38:43.078Z,12.25
2018-12-17T17:41:10.968Z,11.83
2018-12-17T17:43:38.981Z,11.73
2018-12-17T17:46:06.815Z,10.80
2018-12-17T17:48:35.140Z,11.53
2018-12-17T17:51:03.124Z,13.20
2018-12-17T17:53:31.016Z,12.87
2018-12-17T17:55:58.929Z,10.93
2018-12-17T17:58:28.577Z,12.47
2018-12-17T18:00:56.602Z,11.20
2018-12-17T18:03:24.834Z,11.63
2018-12-17T18:05:52.678Z,11.03
2018-12-17T18:08:21.114Z,13.70
2018-12-17T18:10:49.454Z,11.70
2018-12-17T18:13:17.493Z,11.13
2018-12-17T18:15:45.562Z,12.57
2018-12-17T18:18:15.022Z,11.30
2018-12-17T18:20:43.275Z,12.73
2018-12-17T18:23:11.411Z,12.07
2018-12-17T18:25:39.271Z,11.60
2018-12-17T18:28:07.207Z,12.93
2018-12-17T18:30:35.021Z,14.33
2018-12-17T18:33:03.056Z,15.03
2018-12-17T18:35:30.972Z,13.17
2018-12-17T18:38:00.475Z,12.37
2018-12-17T18:40:28.497Z,13.70
2018-12-17T18:42:56.624Z,12.97
2018-12-17T18:45:31.645Z,15.83
2018-12-17T18:47:59.655Z,17.23
2018-12-17T18:50:27.690Z,17.80
2018-12-17T18:52:55.781Z,20.53
2018-12-17T18:55:23.939Z,20.50
2018-12-17T18:57:51.783Z,21.57
2018-12-17T19:00:19.971Z,27.70
2018-12-17T19:02:48.154Z,22.13
2018-12-17T19:05:16.190Z,25.33
2018-12-17T19:07:44.266Z,23.13
2018-12-17T19:10:12.517Z,24.93
2018-12-17T19:12:40.387Z,26.33
2018-12-17T19:15:08.912Z,23.53
2018-12-17T19:17:36.763Z,23.40
2018-12-17T19:20:04.959Z,22.67
2018-12-17T19:22:33.162Z,22.27
2018-12-17T19:25:01.790Z,20.33
2018-12-17T19:27:29.659Z,21.07
2018-12-17T19:29:57.927Z,21.23
2018-12-17T19:32:25.750Z,23.23
2018-12-17T19:34:54.869Z,22.60
2018-12-17T19:37:23.985Z,24.63
2018-12-17T19:39:52.190Z,27.67
2018-12-17T19:42:20.242Z,26.80
2018-12-17T19:44:48.518Z,25.53
2018-12-17T19:47:16.610Z,25.97
2018-12-17T19:49:44.442Z,27.83
2018-12-17T19:52:13.574Z,27.10
2018-12-17T19:54:41.588Z,29.10
2018-12-17T19:57:09.887Z,28.27
2018-12-17T19:59:37.957Z,26.37
2018-12-17T20:02:06.433Z,29.50
2018-12-17T20:04:34.340Z,32.97
2018-12-17T20:07:02.414Z,32.20
2018-12-17T20:09:30.454Z,34.60
2018-12-17T20:11:58.724Z,31.93
2018-12-17T20:14:26.591Z,31.63
2018-12-17T20:16:54.702Z,34.00
2018-12-17T20:19:22.700Z,31.63
2018-12-17T20:21:50.695Z,30.00
2018-12-17T20:24:18.547Z,27.80
2018-12-17T20:26:46.723Z,28.50
2018-12-17T20:29:14.792Z,29.07
2018-12-17T20:31:42.867Z,27.37
2018-12-17T20:34:11.781Z,26.47
2018-12-17T20:36:40.024Z,24.70
2018-12-17T20:39:08.095Z,26.37
2018-12-17T20:41:36.183Z,24.23
2018-12-17T20:44:04.237Z,23.77
2018-12-17T20:46:32.071Z,25.10
2018-12-17T20:49:00.420Z,26.13
2018-12-17T20:51:28.357Z,23.70
2018-12-17T20:53:56.539Z,25.03
2018-12-17T20:56:25.333Z,25.77
2018-12-17T20:58:53.675Z,26.23
2018-12-17T21:01:21.743Z,27.33
2018-12-17T21:03:49.619Z,24.20
2018-12-17T21:06:17.689Z,23.10
2018-12-17T21:08:45.675Z,22.87
2018-12-17T21:11:13.627Z,22.07
2018-12-17T21:13:41.707Z,24.63
2018-12-17T21:16:09.787Z,20.77
2018-12-17T21:18:42.952Z,21.03
2018-12-17T21:21:10.830Z,19.63
2018-12-17T21:23:39.048Z,20.07
2018-12-17T21:26:06.869Z,18.57
2018-12-17T21:28:35.319Z,17.40
2018-12-17T21:31:03.136Z,18.03
2018-12-17T21:33:31.038Z,18.77
2018-12-17T21:35:59.258Z,17.63
2018-12-17T21:38:27.347Z,16.50
2018-12-17T21:40:55.276Z,15.37
2018-12-17T21:43:23.271Z,17.03
2018-12-17T21:45:51.306Z,17.90
2018-12-17T21:48:19.412Z,17.20
2018-12-17T21:50:47.485Z,17.23
2018-12-17T21:53:16.516Z,18.53
2018-12-17T21:55:44.340Z,21.43
2018-12-17T21:58:12.198Z,22.13
2018-12-17T22:00:40.333Z,22.43
2018-12-17T22:03:13.279Z,25.30
2018-12-17T22:05:38.431Z,26.27
2018-12-17T22:08:06.515Z,26.83
2018-12-17T22:10:34.309Z,28.20
2018-12-17T22:13:02.575Z,30.30
2018-12-17T22:15:30.954Z,35.33
2018-12-17T22:17:58.883Z,36.63
2018-12-17T22:20:26.951Z,39.93
2018-12-17T22:22:55.001Z,39.70
2018-12-17T22:25:22.899Z,35.10
2018-12-17T22:27:50.956Z,36.67
2018-12-17T22:30:18.794Z,34.97
2018-12-17T22:32:46.835Z,38.90
2018-12-17T22:35:14.798Z,39.17
2018-12-17T22:37:42.835Z,37.43
2018-12-17T22:40:10.650Z,39.67
2018-12-17T22:42:38.550Z,34.97
2018-12-17T22:45:07.260Z,36.87
2018-12-17T22:47:35.330Z,38.93
2018-12-17T22:50:03.909Z,38.50
2018-12-17T22:52:31.748Z,35.73
2018-12-17T22:55:00.614Z,38.90
2018-12-17T22:57:28.638Z,35.20
2018-12-17T22:59:56.561Z,39.40
2018-12-17T23:02:25.816Z,38.00
2018-12-17T23:04:54.283Z,37.57
2018-12-17T23:07:22.259Z,41.90
2018-12-17T23:09:55.766Z,41.47
2018-12-17T23:12:29.116Z,36.90
2018-12-17T23:15:02.854Z,37.17
2018-12-17T23:17:37.521Z,34.50
2018-12-17T23:20:05.544Z,39.13
2018-12-17T23:22:33.582Z,36.97
2018-12-17T23:25:01.527Z,37.70
2018-12-17T23:27:29.346Z,37.10
2018-12-17T23:29:57.355Z,34.83
2018-12-17T23:32:27.423Z,34.27
2018-12-17T23:34:55.355Z,34.47
2018-12-17T23:37:23.266Z,35.73
2018-12-17T23:39:52.334Z,36.53
2018-12-17T23:42:20.349Z,34.40
2018-12-17T23:44:48.247Z,34.70
2018-12-17T23:47:16.115Z,35.07
2018-12-17T23:49:43.968Z,33.30
2018-12-17T23:52:11.864Z,34.20
2018-12-17T23:54:39.672Z,33.10
2018-12-17T23:57:07.790Z,32.83
2018-12-17T23:59:36.928Z,30.93
